Terminal Aerodrome Forecast
Issued by NWS Omaha/Valley, NE

Home | Current Version | Previous Version | Text Only | Print | Product List | Glossary Off
Versions: 1 2 3 4 5 6 7 8 9 10 11 12 13 14 15 16 17

000
FTUS43 KOAX 280223 AAA
TAFOFK
TAF AMD
KOFK 280223Z 2802/2824 04015KT P6SM VCSH BKN006
     FM280500 36009KT 5SM -SHRA OVC003
     FM281000 35010KT P6SM VCSH OVC003
     FM281800 35010KT P6SM OVC015=

USA.gov is the U.S. government's official web portal to all federal, state and local government web resources and services.